createdAt,value
2023-02-24T00:01:12.554Z,7.62
2023-02-24T00:03:44.956Z,7.62
2023-02-24T00:06:12.383Z,7.63
2023-02-24T00:08:40.231Z,7.63
2023-02-24T00:11:09.553Z,7.64
2023-02-24T00:13:36.626Z,7.65
2023-02-24T00:16:05.077Z,7.66
2023-02-24T00:18:33.335Z,7.69
2023-02-24T00:21:08.375Z,7.70
2023-02-24T00:23:37.271Z,7.71
2023-02-24T00:26:07.203Z,7.70
2023-02-24T00:28:35.674Z,7.68
2023-02-24T00:31:08.668Z,7.67
2023-02-24T00:33:35.547Z,7.66
2023-02-24T00:36:24.066Z,7.66
2023-02-24T00:38:55.652Z,7.68
2023-02-24T00:41:25.796Z,7.69
2023-02-24T00:43:52.588Z,7.71
2023-02-24T00:46:23.001Z,7.72
2023-02-24T00:48:55.143Z,7.73
2023-02-24T00:51:27.259Z,7.74
2023-02-24T00:53:57.619Z,7.74
2023-02-24T00:56:26.743Z,7.74
2023-02-24T00:58:55.596Z,7.75
2023-02-24T01:01:25.463Z,7.77
2023-02-24T01:03:54.939Z,7.80
2023-02-24T01:06:25.682Z,7.82
2023-02-24T01:08:53.997Z,7.83
2023-02-24T01:11:39.455Z,7.84
2023-02-24T01:14:10.825Z,7.83
2023-02-24T01:16:37.991Z,7.80
2023-02-24T01:19:05.971Z,7.81
2023-02-24T01:21:33.003Z,7.82
2023-02-24T01:24:00.664Z,7.85
2023-02-24T01:26:27.416Z,7.87
2023-02-24T01:28:55.775Z,7.89
2023-02-24T01:31:24.214Z,7.91
2023-02-24T01:33:52.290Z,7.92
2023-02-24T01:36:23.892Z,7.92
2023-02-24T01:38:50.714Z,7.90
2023-02-24T01:41:22.359Z,7.90
2023-02-24T01:44:02.630Z,7.87
2023-02-24T01:46:33.874Z,7.86
2023-02-24T01:49:22.865Z,7.85
2023-02-24T01:51:49.609Z,7.88
2023-02-24T01:54:21.431Z,7.90
2023-02-24T01:56:50.718Z,7.92
2023-02-24T01:59:20.087Z,7.92
2023-02-24T02:01:48.616Z,7.92
2023-02-24T02:04:20.580Z,7.90
2023-02-24T02:06:48.745Z,7.87
2023-02-24T02:09:16.029Z,7.84
2023-02-24T02:11:49.322Z,7.81
2023-02-24T02:14:18.230Z,7.81
2023-02-24T02:17:17.277Z,7.84
2023-02-24T02:20:00.612Z,7.86
2023-02-24T02:22:42.853Z,7.87
2023-02-24T02:25:26.414Z,7.86
2023-02-24T02:28:20.022Z,7.88
2023-02-24T02:30:48.396Z,7.86
2023-02-24T02:33:27.864Z,7.85
2023-02-24T02:36:00.706Z,7.86
2023-02-24T02:38:37.394Z,7.88
2023-02-24T02:41:17.423Z,7.93
2023-02-24T02:43:53.277Z,7.93
2023-02-24T02:46:35.179Z,7.93
2023-02-24T02:49:11.585Z,7.92
2023-02-24T02:51:47.065Z,7.91
2023-02-24T02:54:39.073Z,7.91
2023-02-24T02:57:14.318Z,7.91
2023-02-24T02:59:49.407Z,7.93
2023-02-24T03:02:23.897Z,7.96
2023-02-24T03:04:54.694Z,7.96
2023-02-24T03:07:31.233Z,7.97
2023-02-24T03:10:06.143Z,7.96
2023-02-24T03:12:34.346Z,7.93
2023-02-24T03:15:06.977Z,7.92
2023-02-24T03:17:41.586Z,7.92
2023-02-24T03:20:17.563Z,7.95
2023-02-24T03:22:52.100Z,7.96
2023-02-24T03:25:25.617Z,7.96
2023-02-24T03:28:01.144Z,7.95
2023-02-24T03:30:37.958Z,7.93
2023-02-24T03:33:20.252Z,7.91
2023-02-24T03:35:51.517Z,7.88
2023-02-24T03:38:20.052Z,7.85
2023-02-24T03:40:47.477Z,7.81
2023-02-24T03:43:29.648Z,7.79
2023-02-24T03:45:58.065Z,7.76
2023-02-24T03:48:28.027Z,7.74
2023-02-24T03:50:56.318Z,7.71
2023-02-24T03:54:09.384Z,7.68
2023-02-24T03:57:03.358Z,7.63
2023-02-24T03:59:43.538Z,7.61
2023-02-24T04:02:20.836Z,7.59
2023-02-24T04:05:06.512Z,7.60
2023-02-24T04:07:57.799Z,7.59
2023-02-24T04:10:41.421Z,7.58
2023-02-24T04:13:28.659Z,7.56
2023-02-24T04:16:17.129Z,7.51
2023-02-24T04:18:49.746Z,7.47
2023-02-24T04:21:20.317Z,7.45
2023-02-24T04:23:48.068Z,7.42
2023-02-24T04:26:17.923Z,7.39
2023-02-24T04:28:48.594Z,7.37
2023-02-24T04:31:18.504Z,7.33
2023-02-24T04:33:53.664Z,7.27
2023-02-24T04:36:26.954Z,7.21
2023-02-24T04:38:54.475Z,7.18
2023-02-24T04:41:22.299Z,7.17
2023-02-24T04:43:51.046Z,7.18
2023-02-24T04:46:19.728Z,7.19
2023-02-24T04:48:46.613Z,7.18
2023-02-24T04:51:13.873Z,7.16
2023-02-24T04:53:40.884Z,7.11
2023-02-24T04:56:09.260Z,7.08
2023-02-24T04:58:39.745Z,7.07
2023-02-24T05:01:10.785Z,7.06
2023-02-24T05:03:42.299Z,7.06
2023-02-24T05:06:16.182Z,7.04
2023-02-24T05:08:43.556Z,7.04
2023-02-24T05:11:16.274Z,7.00
2023-02-24T05:13:47.214Z,6.94
2023-02-24T05:16:16.870Z,6.90
2023-02-24T05:18:44.886Z,6.88
2023-02-24T05:21:30.855Z,6.87
2023-02-24T05:23:59.433Z,6.86
2023-02-24T05:26:26.637Z,6.87
2023-02-24T05:28:56.576Z,6.86
2023-02-24T05:31:28.093Z,6.84
2023-02-24T05:33:58.569Z,6.82
2023-02-24T05:36:27.773Z,6.80
2023-02-24T05:39:06.690Z,6.81
2023-02-24T05:41:37.964Z,6.83
2023-02-24T05:44:09.375Z,6.84
2023-02-24T05:46:41.589Z,6.84
2023-02-24T05:49:14.462Z,6.84
2023-02-24T05:51:43.794Z,6.84
2023-02-24T05:54:13.372Z,6.84
2023-02-24T05:56:45.910Z,6.86
2023-02-24T05:59:18.279Z,6.88
2023-02-24T06:01:46.179Z,6.89
2023-02-24T06:04:21.114Z,6.90
2023-02-24T06:06:56.445Z,6.89
2023-02-24T06:09:23.476Z,6.87
2023-02-24T06:11:50.539Z,6.86
2023-02-24T06:14:17.547Z,6.88
2023-02-24T06:16:44.470Z,6.91
2023-02-24T06:19:13.413Z,6.93
2023-02-24T06:21:41.979Z,6.94
2023-02-24T06:24:14.806Z,6.93
2023-02-24T06:26:43.528Z,6.94
2023-02-24T06:29:14.710Z,6.94
2023-02-24T06:31:43.215Z,6.96
2023-02-24T06:34:11.382Z,7.01
2023-02-24T06:36:38.636Z,7.03
2023-02-24T06:39:08.291Z,7.03
2023-02-24T06:41:37.974Z,7.02
2023-02-24T06:44:05.596Z,7.03
2023-02-24T06:46:32.490Z,7.05
2023-02-24T06:48:59.324Z,7.08
2023-02-24T06:51:30.229Z,7.10
2023-02-24T06:53:59.639Z,7.13
2023-02-24T06:56:27.631Z,7.14
2023-02-24T06:58:56.888Z,7.13
2023-02-24T07:01:26.319Z,7.11
2023-02-24T07:04:11.620Z,7.11
2023-02-24T07:06:41.676Z,7.13
2023-02-24T07:09:11.190Z,7.14
2023-02-24T07:11:41.636Z,7.20
2023-02-24T07:14:11.306Z,7.24
2023-02-24T07:16:41.809Z,7.25
2023-02-24T07:19:14.307Z,7.27
2023-02-24T07:21:46.723Z,7.31
2023-02-24T07:24:25.081Z,7.35
2023-02-24T07:26:57.364Z,7.41
2023-02-24T07:29:26.348Z,7.45
2023-02-24T07:31:55.218Z,7.47
2023-02-24T07:34:25.164Z,7.48
2023-02-24T07:36:53.440Z,7.49
2023-02-24T07:39:23.187Z,7.50
2023-02-24T07:41:52.035Z,7.47
2023-02-24T07:44:20.647Z,7.45
2023-02-24T07:46:49.594Z,7.41
2023-02-24T07:49:20.206Z,7.39
2023-02-24T07:51:52.714Z,7.39
2023-02-24T07:54:23.284Z,7.40
2023-02-24T07:56:59.609Z,7.40
2023-02-24T07:59:29.414Z,7.41
2023-02-24T08:01:57.019Z,7.41
2023-02-24T08:04:27.432Z,7.39
2023-02-24T08:06:59.119Z,7.38
2023-02-24T08:09:45.425Z,7.37
2023-02-24T08:12:18.566Z,7.38
2023-02-24T08:14:51.124Z,7.39
2023-02-24T08:17:22.168Z,7.39
2023-02-24T08:20:01.205Z,7.40
2023-02-24T08:22:36.172Z,7.42
2023-02-24T08:25:06.779Z,7.43
2023-02-24T08:27:40.445Z,7.44
2023-02-24T08:30:09.656Z,7.45
2023-02-24T08:32:43.937Z,7.44
2023-02-24T08:35:15.568Z,7.43
2023-02-24T08:37:47.281Z,7.44
2023-02-24T08:40:32.009Z,7.45
2023-02-24T08:43:17.705Z,7.46
2023-02-24T08:45:57.132Z,7.47
2023-02-24T08:48:44.287Z,7.49
2023-02-24T08:51:17.847Z,7.56
2023-02-24T08:53:47.017Z,7.62
2023-02-24T08:56:24.552Z,7.68
2023-02-24T08:58:57.374Z,7.71
2023-02-24T09:01:34.963Z,7.77
2023-02-24T09:04:08.873Z,7.82
2023-02-24T09:06:38.520Z,7.86
2023-02-24T09:09:22.125Z,7.90
2023-02-24T09:11:57.595Z,7.93
2023-02-24T09:14:29.055Z,7.96
2023-02-24T09:17:06.632Z,8.00
2023-02-24T09:19:50.169Z,8.05
2023-02-24T09:22:36.363Z,8.12
2023-02-24T09:25:22.130Z,8.19
2023-02-24T09:27:52.611Z,8.24
2023-02-24T09:30:37.882Z,8.31
2023-02-24T09:33:18.334Z,8.35
2023-02-24T09:35:46.856Z,8.37
2023-02-24T09:38:16.841Z,8.35
2023-02-24T09:40:50.362Z,8.34
2023-02-24T09:43:24.618Z,8.35
2023-02-24T09:45:58.693Z,8.38
2023-02-24T09:48:43.866Z,8.41
2023-02-24T09:51:21.884Z,8.42
2023-02-24T09:53:53.683Z,8.42
2023-02-24T09:56:37.271Z,8.45
2023-02-24T09:59:11.856Z,8.49
2023-02-24T10:01:43.457Z,8.55
2023-02-24T10:04:41.081Z,8.61
2023-02-24T10:07:15.612Z,8.66
2023-02-24T10:09:44.291Z,8.72
2023-02-24T10:12:34.240Z,8.79
2023-02-24T10:15:20.778Z,8.88
2023-02-24T10:17:58.390Z,8.98
2023-02-24T10:20:39.680Z,9.06
2023-02-24T10:23:29.816Z,9.10
2023-02-24T10:26:08.018Z,9.14
2023-02-24T10:28:40.350Z,9.21
2023-02-24T10:31:25.547Z,9.33
2023-02-24T10:34:00.972Z,9.49
2023-02-24T10:36:35.787Z,9.64
2023-02-24T10:39:15.719Z,9.73
2023-02-24T10:41:47.096Z,9.73
2023-02-24T10:44:22.115Z,9.73
2023-02-24T10:47:11.317Z,9.70
2023-02-24T10:49:44.971Z,9.70
2023-02-24T10:52:33.524Z,9.75
2023-02-24T10:55:15.660Z,9.82
2023-02-24T10:57:58.537Z,9.91
2023-02-24T11:00:48.307Z,9.95
2023-02-24T11:03:32.668Z,9.93
2023-02-24T11:06:20.128Z,9.92
2023-02-24T11:09:09.116Z,9.95
2023-02-24T11:11:53.402Z,10.00
2023-02-24T11:14:35.797Z,10.04
2023-02-24T11:17:17.982Z,10.15
2023-02-24T11:19:54.765Z,10.27
2023-02-24T11:22:27.936Z,10.45
2023-02-24T11:24:54.723Z,10.60
2023-02-24T11:27:25.775Z,10.65
2023-02-24T11:29:55.964Z,10.68
2023-02-24T11:32:49.817Z,10.68
2023-02-24T11:35:23.510Z,10.68
2023-02-24T11:38:07.717Z,10.68
2023-02-24T11:40:44.024Z,10.66
2023-02-24T11:43:18.550Z,10.59
2023-02-24T11:45:54.965Z,10.52
2023-02-24T11:48:35.854Z,10.47
2023-02-24T11:51:20.275Z,10.54
2023-02-24T11:53:51.186Z,10.62
2023-02-24T11:56:21.653Z,10.69
2023-02-24T11:58:52.801Z,10.75
2023-02-24T12:01:25.499Z,10.80
2023-02-24T12:04:00.180Z,10.82
2023-02-24T12:06:30.880Z,10.87
2023-02-24T12:09:09.428Z,10.98
2023-02-24T12:11:48.715Z,11.12
2023-02-24T12:14:19.068Z,11.25
2023-02-24T12:16:53.378Z,11.35
2023-02-24T12:19:25.531Z,11.32
2023-02-24T12:21:59.119Z,11.22
2023-02-24T12:24:25.854Z,11.19
2023-02-24T12:27:18.508Z,11.18
2023-02-24T12:30:23.204Z,11.19
2023-02-24T12:32:58.728Z,11.13
2023-02-24T12:35:42.142Z,11.02
2023-02-24T12:38:30.514Z,10.91
2023-02-24T12:41:16.187Z,10.84
2023-02-24T12:44:06.040Z,10.72
2023-02-24T12:46:36.640Z,10.57
2023-02-24T12:49:16.366Z,10.45
2023-02-24T12:52:07.604Z,10.34
2023-02-24T12:54:41.980Z,10.24
2023-02-24T12:57:09.841Z,10.17
2023-02-24T12:59:40.687Z,10.10
2023-02-24T13:02:12.593Z,10.03
2023-02-24T13:04:44.080Z,9.90
2023-02-24T13:07:41.456Z,9.77
2023-02-24T13:10:30.976Z,9.66
2023-02-24T13:13:08.905Z,9.56
2023-02-24T13:15:36.011Z,9.43
2023-02-24T13:18:02.985Z,9.37
2023-02-24T13:20:36.818Z,9.34
2023-02-24T13:23:21.401Z,9.33
2023-02-24T13:25:54.807Z,9.36
2023-02-24T13:28:26.852Z,9.32
2023-02-24T13:31:10.607Z,9.33
2023-02-24T13:33:39.268Z,9.33
2023-02-24T13:36:10.908Z,9.32
2023-02-24T13:38:40.672Z,9.33
2023-02-24T13:41:09.881Z,9.33
2023-02-24T13:43:36.916Z,9.35
2023-02-24T13:46:18.585Z,9.38
2023-02-24T13:48:54.155Z,9.37
2023-02-24T13:51:31.961Z,9.34
2023-02-24T13:54:17.420Z,9.31
2023-02-24T13:56:44.972Z,9.28
2023-02-24T13:59:27.089Z,9.28
2023-02-24T14:02:11.895Z,9.28
2023-02-24T14:04:48.803Z,9.23
2023-02-24T14:07:26.196Z,9.25
2023-02-24T14:09:59.334Z,9.27
2023-02-24T14:12:30.948Z,9.31
2023-02-24T14:14:59.008Z,9.35
2023-02-24T14:17:30.763Z,9.38
2023-02-24T14:20:09.040Z,9.41
2023-02-24T14:22:44.962Z,9.42
2023-02-24T14:25:13.547Z,9.40
2023-02-24T14:27:42.860Z,9.39
2023-02-24T14:30:38.249Z,9.38
2023-02-24T14:33:07.843Z,9.36
2023-02-24T14:35:37.737Z,9.36
2023-02-24T14:38:05.998Z,9.34
2023-02-24T14:40:33.829Z,9.32
2023-02-24T14:43:00.643Z,9.30
2023-02-24T14:45:28.990Z,9.27
2023-02-24T14:47:56.947Z,9.24
2023-02-24T14:50:29.694Z,9.20
2023-02-24T14:53:05.166Z,9.17
2023-02-24T14:55:37.207Z,9.14
2023-02-24T14:58:14.053Z,9.12
2023-02-24T15:00:48.201Z,9.12
2023-02-24T15:03:19.451Z,9.10
2023-02-24T15:05:50.556Z,9.07
2023-02-24T15:08:23.836Z,9.06
2023-02-24T15:10:50.680Z,9.08
2023-02-24T15:13:29.854Z,9.10
2023-02-24T15:15:57.154Z,9.13
2023-02-24T15:18:28.260Z,9.19
2023-02-24T15:21:05.994Z,9.28
2023-02-24T15:23:36.167Z,9.36
2023-02-24T15:26:06.261Z,9.38
2023-02-24T15:28:35.800Z,9.38
2023-02-24T15:31:10.819Z,9.37
2023-02-24T15:33:41.708Z,9.33
2023-02-24T15:36:12.552Z,9.31
2023-02-24T15:38:42.653Z,9.24
2023-02-24T15:41:11.499Z,9.16
2023-02-24T15:43:47.591Z,9.11
2023-02-24T15:46:14.519Z,9.07
2023-02-24T15:48:43.676Z,9.02
2023-02-24T15:51:21.719Z,8.98
2023-02-24T15:53:48.678Z,8.92
2023-02-24T15:56:17.357Z,8.90
2023-02-24T15:58:44.733Z,8.88
2023-02-24T16:01:12.597Z,8.88
2023-02-24T16:03:40.190Z,8.88
2023-02-24T16:06:12.936Z,8.89
2023-02-24T16:08:44.848Z,8.87
2023-02-24T16:11:13.296Z,8.83
2023-02-24T16:13:41.936Z,8.79
2023-02-24T16:16:12.496Z,8.79
2023-02-24T16:18:40.114Z,8.78
2023-02-24T16:21:07.077Z,8.78
2023-02-24T16:23:40.605Z,8.77
2023-02-24T16:26:15.055Z,8.74
2023-02-24T16:28:42.726Z,8.74
2023-02-24T16:31:09.548Z,8.75
2023-02-24T16:33:52.005Z,8.76
2023-02-24T16:36:23.741Z,8.74
2023-02-24T16:38:51.709Z,8.71
2023-02-24T16:41:18.860Z,8.67
2023-02-24T16:43:45.768Z,8.65
2023-02-24T16:46:16.866Z,8.62
2023-02-24T16:48:46.767Z,8.61
2023-02-24T16:51:14.866Z,8.58
2023-02-24T16:53:42.717Z,8.56
2023-02-24T16:56:09.571Z,8.54
2023-02-24T16:58:37.608Z,8.53
2023-02-24T17:01:05.542Z,8.53
2023-02-24T17:03:50.022Z,8.55
2023-02-24T17:06:16.713Z,8.58
2023-02-24T17:08:45.718Z,8.59
2023-02-24T17:11:14.348Z,8.60
2023-02-24T17:13:41.450Z,8.56
2023-02-24T17:16:08.199Z,8.50
2023-02-24T17:18:35.685Z,8.43
2023-02-24T17:21:03.104Z,8.41
2023-02-24T17:23:29.910Z,8.35
2023-02-24T17:26:00.741Z,8.31
2023-02-24T17:28:27.940Z,8.27
2023-02-24T17:30:54.737Z,8.24
2023-02-24T17:33:21.945Z,8.24
2023-02-24T17:35:48.972Z,8.25
2023-02-24T17:38:18.106Z,8.21
2023-02-24T17:40:45.874Z,8.12
2023-02-24T17:43:12.886Z,8.04
2023-02-24T17:45:45.043Z,7.96
2023-02-24T17:48:13.754Z,7.83
2023-02-24T17:50:43.389Z,7.68
2023-02-24T17:53:10.300Z,7.47
2023-02-24T17:55:37.146Z,7.34
2023-02-24T17:58:03.908Z,7.22
2023-02-24T18:00:30.778Z,7.19
2023-02-24T18:02:57.656Z,7.13
2023-02-24T18:05:24.783Z,7.00
2023-02-24T18:07:51.656Z,6.97
2023-02-24T18:10:18.518Z,6.92
2023-02-24T18:12:45.297Z,6.86
2023-02-24T18:15:12.154Z,6.79
2023-02-24T18:17:39.553Z,6.72
2023-02-24T18:20:09.014Z,6.65
2023-02-24T18:22:36.263Z,6.62
2023-02-24T18:25:03.128Z,6.61
2023-02-24T18:27:30.096Z,6.62
2023-02-24T18:29:56.947Z,6.62
2023-02-24T18:32:24.409Z,6.60
2023-02-24T18:34:51.447Z,6.57
2023-02-24T18:37:18.369Z,6.53
2023-02-24T18:39:45.147Z,6.51
2023-02-24T18:42:12.034Z,6.51
2023-02-24T18:44:38.811Z,6.52
2023-02-24T18:47:09.549Z,6.51
2023-02-24T18:49:37.700Z,6.51
2023-02-24T18:52:05.550Z,6.51
2023-02-24T18:54:33.554Z,6.48
2023-02-24T18:57:01.159Z,6.43
2023-02-24T18:59:28.035Z,6.40
2023-02-24T19:01:56.830Z,6.36
2023-02-24T19:04:24.764Z,6.34
2023-02-24T19:06:51.581Z,6.31
2023-02-24T19:09:21.871Z,6.28
2023-02-24T19:11:49.665Z,6.24
2023-02-24T19:14:18.999Z,6.23
2023-02-24T19:16:46.593Z,6.21
2023-02-24T19:19:16.123Z,6.19
2023-02-24T19:21:45.787Z,6.18
2023-02-24T19:24:13.994Z,6.19
2023-02-24T19:26:44.854Z,6.20
2023-02-24T19:29:12.130Z,6.19
2023-02-24T19:31:39.542Z,6.17
2023-02-24T19:34:10.251Z,6.14
2023-02-24T19:36:38.220Z,6.10
2023-02-24T19:39:06.136Z,6.06
2023-02-24T19:41:33.057Z,6.02
2023-02-24T19:43:59.982Z,5.98
2023-02-24T19:46:27.165Z,5.95
2023-02-24T19:48:56.249Z,5.96
2023-02-24T19:51:23.924Z,5.96
2023-02-24T19:53:53.581Z,5.95
2023-02-24T19:56:25.887Z,5.94
2023-02-24T19:58:54.785Z,5.92
2023-02-24T20:01:23.010Z,5.86
2023-02-24T20:03:50.575Z,5.81
2023-02-24T20:06:21.643Z,5.75
2023-02-24T20:08:50.668Z,5.77
2023-02-24T20:11:18.735Z,5.77
2023-02-24T20:13:46.611Z,5.77
2023-02-24T20:16:16.681Z,5.75
2023-02-24T20:18:44.759Z,5.73
2023-02-24T20:21:13.753Z,5.71
2023-02-24T20:23:41.069Z,5.70
2023-02-24T20:26:10.717Z,5.71
2023-02-24T20:28:37.847Z,5.73
2023-02-24T20:31:10.419Z,5.75
2023-02-24T20:33:39.678Z,5.77
2023-02-24T20:36:10.478Z,5.79
2023-02-24T20:38:38.228Z,5.80
2023-02-24T20:41:05.896Z,5.80
2023-02-24T20:43:33.885Z,5.80
2023-02-24T20:46:10.264Z,5.83
2023-02-24T20:48:37.425Z,5.87
2023-02-24T20:51:05.043Z,5.94
2023-02-24T20:53:32.298Z,6.00
2023-02-24T20:56:02.646Z,6.07
2023-02-24T20:58:29.714Z,6.12
2023-02-24T21:00:56.531Z,6.15
2023-02-24T21:03:24.470Z,6.17
2023-02-24T21:06:01.510Z,6.19
2023-02-24T21:08:35.629Z,6.21
2023-02-24T21:11:02.786Z,6.22
2023-02-24T21:13:29.583Z,6.22
2023-02-24T21:15:57.008Z,6.22
2023-02-24T21:18:23.800Z,6.21
2023-02-24T21:20:54.259Z,6.18
2023-02-24T21:23:21.962Z,6.17
2023-02-24T21:25:53.322Z,6.17
2023-02-24T21:28:21.296Z,6.20
2023-02-24T21:30:49.219Z,6.23
2023-02-24T21:33:17.651Z,6.33
2023-02-24T21:35:45.838Z,6.36
2023-02-24T21:38:12.658Z,6.37
2023-02-24T21:40:40.706Z,6.41
2023-02-24T21:43:07.569Z,6.46
2023-02-24T21:45:34.377Z,6.52
2023-02-24T21:48:01.115Z,6.56
2023-02-24T21:50:28.293Z,6.60
2023-02-24T21:52:55.996Z,6.62
2023-02-24T21:55:23.510Z,6.63
2023-02-24T21:57:50.385Z,6.67
2023-02-24T22:00:19.282Z,6.72
2023-02-24T22:02:48.448Z,6.76
2023-02-24T22:05:16.557Z,6.78
2023-02-24T22:07:45.010Z,6.81
2023-02-24T22:10:13.781Z,6.84
2023-02-24T22:12:41.010Z,6.86
2023-02-24T22:15:09.951Z,6.89
2023-02-24T22:17:38.560Z,6.90
2023-02-24T22:20:09.146Z,6.91
2023-02-24T22:22:37.511Z,6.89
2023-02-24T22:25:06.825Z,6.90
2023-02-24T22:27:33.875Z,6.90
2023-02-24T22:30:00.655Z,6.91
2023-02-24T22:32:28.226Z,6.93
2023-02-24T22:34:55.078Z,6.95
2023-02-24T22:37:21.902Z,6.97
2023-02-24T22:39:48.794Z,6.97
2023-02-24T22:42:15.556Z,6.97
2023-02-24T22:44:42.541Z,6.97
2023-02-24T22:47:09.354Z,6.98
2023-02-24T22:49:36.187Z,7.01
2023-02-24T22:52:03.096Z,7.02
2023-02-24T22:54:29.903Z,7.01
2023-02-24T22:56:57.737Z,6.97
2023-02-24T22:59:24.486Z,6.96
2023-02-24T23:01:51.291Z,6.95
2023-02-24T23:04:19.896Z,6.93
2023-02-24T23:06:47.610Z,6.93
2023-02-24T23:09:20.110Z,6.92
2023-02-24T23:11:48.732Z,6.91
2023-02-24T23:14:16.429Z,6.87
2023-02-24T23:16:44.871Z,6.86
2023-02-24T23:19:16.720Z,6.85
2023-02-24T23:21:47.323Z,6.83
2023-02-24T23:24:15.300Z,6.84
2023-02-24T23:26:51.930Z,6.84
2023-02-24T23:29:19.995Z,6.84
2023-02-24T23:31:47.755Z,6.84
2023-02-24T23:34:21.362Z,6.84
2023-02-24T23:36:48.198Z,6.86
2023-02-24T23:39:18.094Z,6.89
2023-02-24T23:41:44.988Z,6.92
2023-02-24T23:44:12.586Z,6.94
2023-02-24T23:46:42.018Z,6.95
2023-02-24T23:49:09.014Z,6.95
2023-02-24T23:51:47.570Z,6.95
2023-02-24T23:54:18.158Z,6.95
2023-02-24T23:56:46.559Z,6.95
2023-02-24T23:59:13.891Z,6.96
